createdAt,value
2018-07-07T00:02:29.092Z,82.00
2018-07-07T00:07:22.323Z,82.40
2018-07-07T00:12:15.630Z,82.70
2018-07-07T00:17:08.949Z,83.00
2018-07-07T00:22:02.632Z,83.10
2018-07-07T00:26:55.896Z,82.90
2018-07-07T00:31:49.130Z,83.90
2018-07-07T00:36:43.851Z,84.40
2018-07-07T00:46:30.314Z,85.20
2018-07-07T00:51:23.543Z,85.30
2018-07-07T00:56:17.397Z,85.50
2018-07-07T01:01:10.687Z,85.80
2018-07-07T01:06:03.966Z,85.60
2018-07-07T01:15:50.819Z,85.90
2018-07-07T01:25:37.979Z,85.40
2018-07-07T01:35:24.609Z,84.00
2018-07-07T01:40:18.040Z,83.50
2018-07-07T01:45:11.412Z,83.30
2018-07-07T01:50:04.803Z,83.10
2018-07-07T01:54:58.094Z,83.10
2018-07-07T01:59:51.386Z,83.10
2018-07-07T02:04:44.707Z,82.90
2018-07-07T02:09:37.962Z,82.50
2018-07-07T02:14:31.204Z,82.00
2018-07-07T02:19:24.624Z,81.40
2018-07-07T02:34:05.177Z,80.20
2018-07-07T02:38:58.430Z,80.50
2018-07-07T02:43:51.759Z,79.90
2018-07-07T02:48:45.035Z,80.10
2018-07-07T02:53:38.328Z,80.20
2018-07-07T02:58:31.591Z,81.00
2018-07-07T03:03:24.941Z,80.40
2018-07-07T03:08:18.115Z,80.50
2018-07-07T03:13:11.493Z,80.00
2018-07-07T03:18:04.768Z,79.70
2018-07-07T03:22:58.032Z,80.10
2018-07-07T03:27:51.290Z,79.10
2018-07-07T03:42:30.840Z,79.40
2018-07-07T03:47:24.119Z,79.80
2018-07-07T03:52:17.364Z,79.80
2018-07-07T04:02:06.992Z,79.00
2018-07-07T04:07:00.232Z,78.50
2018-07-07T04:11:53.490Z,78.80
2018-07-07T04:21:40.027Z,77.90
2018-07-07T04:26:33.288Z,77.60
2018-07-07T04:31:26.572Z,79.30
2018-07-07T04:36:19.860Z,82.60
2018-07-07T04:41:13.135Z,82.70
2018-07-07T04:46:06.485Z,82.60
2018-07-07T04:50:59.724Z,82.80
2018-07-07T04:55:52.972Z,82.50
2018-07-07T05:00:46.377Z,82.50
2018-07-07T05:05:39.699Z,81.10
2018-07-07T05:10:33.044Z,78.60
2018-07-07T05:20:19.585Z,67.50
2018-07-07T05:30:06.061Z,65.20
2018-07-07T05:34:59.441Z,61.90
2018-07-07T05:39:52.696Z,62.00
2018-07-07T05:44:46.020Z,65.10
2018-07-07T05:49:39.322Z,64.40
2018-07-07T05:54:32.612Z,61.60
2018-07-07T05:59:26.009Z,61.30
2018-07-07T06:04:19.294Z,60.50
2018-07-07T06:09:12.756Z,60.10
2018-07-07T06:18:59.296Z,59.00
2018-07-07T06:28:45.771Z,51.30
2018-07-07T06:33:39.016Z,49.80
2018-07-07T06:53:11.853Z,51.40
2018-07-07T06:58:05.218Z,47.50
2018-07-07T07:02:58.536Z,43.40
2018-07-07T07:07:51.791Z,42.60
2018-07-07T07:12:45.084Z,40.90
2018-07-07T07:17:38.602Z,39.90
2018-07-07T07:22:31.915Z,40.00
2018-07-07T07:27:25.166Z,35.10
2018-07-07T07:32:18.412Z,33.70
2018-07-07T07:37:11.711Z,32.10
2018-07-07T07:42:05.041Z,30.10
2018-07-07T07:46:58.845Z,29.80
2018-07-07T07:51:52.089Z,30.10
2018-07-07T07:56:45.356Z,27.80
2018-07-07T08:01:38.592Z,27.70
2018-07-07T08:11:25.064Z,26.10
2018-07-07T08:16:18.486Z,26.60
2018-07-07T08:21:11.792Z,26.80
2018-07-07T08:30:58.782Z,24.40
2018-07-07T08:35:52.657Z,24.90
2018-07-07T08:40:46.455Z,24.70
2018-07-07T08:45:39.927Z,25.80
2018-07-07T08:50:33.162Z,25.70
2018-07-07T08:55:26.434Z,25.80
2018-07-07T09:00:19.680Z,27.80
2018-07-07T09:05:13.051Z,27.30
2018-07-07T09:10:06.406Z,27.00
2018-07-07T09:14:59.672Z,27.10
2018-07-07T09:19:52.889Z,26.90
2018-07-07T09:24:46.141Z,26.10
2018-07-07T09:29:39.402Z,26.40
2018-07-07T09:34:32.640Z,26.40
2018-07-07T09:39:25.948Z,26.20
2018-07-07T09:44:19.191Z,26.90
2018-07-07T09:49:12.466Z,26.20
2018-07-07T09:54:05.818Z,27.40
2018-07-07T09:58:59.076Z,27.70
2018-07-07T10:03:52.387Z,27.20
2018-07-07T10:08:45.656Z,27.00
2018-07-07T10:13:38.935Z,27.00
2018-07-07T10:18:32.313Z,27.50
2018-07-07T10:23:25.557Z,27.90
2018-07-07T10:28:18.860Z,28.20
2018-07-07T10:33:12.293Z,28.90
2018-07-07T10:38:05.609Z,30.30
2018-07-07T10:42:58.888Z,31.70
2018-07-07T10:47:52.149Z,31.40
2018-07-07T10:52:45.385Z,31.80
2018-07-07T10:57:38.672Z,32.00
2018-07-07T11:02:31.925Z,31.60
2018-07-07T11:07:25.211Z,30.00
2018-07-07T11:12:18.504Z,30.80
2018-07-07T11:17:11.778Z,31.70
2018-07-07T11:22:05.325Z,31.70
2018-07-07T11:26:58.593Z,30.80
2018-07-07T11:36:45.201Z,32.60
2018-07-07T11:41:38.368Z,34.00
2018-07-07T11:46:31.701Z,34.00
2018-07-07T11:51:25.040Z,33.80
2018-07-07T12:01:11.586Z,34.50
2018-07-07T12:06:05.051Z,34.00
2018-07-07T12:10:58.354Z,33.70
2018-07-07T12:15:51.618Z,33.30
2018-07-07T12:20:45.496Z,33.90
2018-07-07T12:25:39.391Z,34.30
2018-07-07T12:35:26.603Z,34.40
2018-07-07T12:40:19.991Z,34.20
2018-07-07T12:45:15.145Z,34.30
2018-07-07T12:55:01.657Z,33.90
2018-07-07T12:59:54.949Z,34.50
2018-07-07T13:04:48.242Z,34.90
2018-07-07T13:09:42.957Z,36.00
2018-07-07T13:19:29.445Z,36.50
2018-07-07T13:24:22.724Z,36.80
2018-07-07T13:29:15.959Z,37.10
2018-07-07T13:34:09.243Z,37.10
2018-07-07T13:39:02.710Z,36.70
2018-07-07T13:43:55.962Z,36.20
2018-07-07T13:48:49.223Z,36.20
2018-07-07T13:53:43.667Z,36.40
2018-07-07T13:58:37.584Z,35.40
2018-07-07T14:08:24.042Z,36.30
2018-07-07T14:18:10.534Z,36.50
2018-07-07T14:23:03.865Z,35.80
2018-07-07T14:27:57.116Z,35.90
2018-07-07T14:32:50.454Z,36.20
2018-07-07T14:42:50.773Z,37.30
2018-07-07T14:47:45.312Z,36.70
2018-07-07T14:52:38.601Z,36.60
2018-07-07T14:57:31.881Z,37.00
2018-07-07T15:02:25.160Z,37.10
2018-07-07T15:07:20.359Z,37.70
2018-07-07T15:12:15.129Z,37.20
2018-07-07T15:17:10.092Z,37.50
2018-07-07T15:22:03.835Z,37.50
2018-07-07T15:26:57.333Z,37.80
2018-07-07T15:31:50.562Z,38.00
2018-07-07T15:36:43.840Z,38.40
2018-07-07T15:41:37.122Z,37.70
2018-07-07T15:46:30.383Z,37.90
2018-07-07T15:51:23.674Z,38.40
2018-07-07T15:56:16.936Z,38.60
2018-07-07T16:01:10.295Z,38.30
2018-07-07T16:10:56.807Z,39.30
2018-07-07T16:15:50.049Z,39.60
2018-07-07T16:20:43.417Z,39.50
2018-07-07T16:25:37.498Z,39.20
2018-07-07T16:30:30.795Z,39.70
2018-07-07T16:35:24.052Z,39.30
2018-07-07T16:40:19.324Z,38.80
2018-07-07T16:45:12.680Z,38.80
2018-07-07T16:50:06.947Z,38.80
2018-07-07T16:55:00.312Z,39.60
2018-07-07T16:59:54.068Z,39.70
2018-07-07T17:04:47.416Z,39.60
2018-07-07T17:09:40.752Z,40.10
2018-07-07T17:14:34.365Z,40.30
2018-07-07T17:19:27.804Z,40.90
2018-07-07T17:24:21.585Z,41.80
2018-07-07T17:29:14.964Z,42.20
2018-07-07T17:34:08.293Z,42.50
2018-07-07T17:39:01.801Z,42.80
2018-07-07T17:43:55.716Z,42.60
2018-07-07T17:48:48.988Z,43.00
2018-07-07T17:53:42.662Z,42.90
2018-07-07T17:58:36.091Z,42.60
2018-07-07T18:03:30.011Z,42.90
2018-07-07T18:13:16.472Z,43.60
2018-07-07T18:18:09.710Z,44.30
2018-07-07T18:23:03.085Z,44.10
2018-07-07T18:27:56.343Z,44.20
2018-07-07T18:32:49.646Z,44.60
2018-07-07T18:42:36.177Z,45.30
2018-07-07T18:47:29.458Z,45.80
2018-07-07T18:52:22.721Z,46.00
2018-07-07T18:57:16.082Z,46.30
2018-07-07T19:07:03.092Z,47.50
2018-07-07T19:11:56.353Z,47.90
2018-07-07T19:16:49.666Z,48.40
2018-07-07T19:21:48.578Z,48.70
2018-07-07T19:26:47.522Z,49.00
2018-07-07T19:31:46.514Z,49.50
2018-07-07T19:36:45.398Z,49.80
2018-07-07T19:41:38.686Z,50.20
2018-07-07T19:46:32.022Z,50.50
2018-07-07T19:56:18.408Z,51.50
2018-07-07T20:01:11.646Z,51.80
2018-07-07T20:10:59.090Z,53.00
2018-07-07T20:16:16.062Z,53.30
2018-07-07T20:21:32.220Z,53.40
2018-07-07T20:26:25.526Z,54.00
2018-07-07T20:31:18.784Z,54.40
2018-07-07T20:36:12.056Z,54.80
2018-07-07T20:41:05.431Z,55.00
2018-07-07T20:45:58.741Z,55.20
2018-07-07T20:50:52.007Z,55.40
2018-07-07T21:05:31.640Z,56.30
2018-07-07T21:15:18.294Z,57.20
2018-07-07T21:20:11.632Z,57.80
2018-07-07T21:25:04.959Z,58.30
2018-07-07T21:29:58.198Z,58.70
2018-07-07T21:34:51.485Z,59.20
2018-07-07T21:44:37.970Z,59.90
2018-07-07T21:49:31.237Z,60.20
2018-07-07T21:54:24.549Z,60.60
2018-07-07T21:59:17.882Z,61.30
2018-07-07T22:04:16.636Z,62.00
2018-07-07T22:09:09.908Z,62.20
2018-07-07T22:14:03.216Z,62.90
2018-07-07T22:23:49.654Z,64.20
2018-07-07T22:28:42.955Z,64.90
2018-07-07T22:38:35.086Z,65.70
2018-07-07T22:43:28.914Z,66.30
2018-07-07T22:53:15.347Z,66.80
2018-07-07T22:58:08.640Z,67.40
2018-07-07T23:07:55.676Z,68.10
2018-07-07T23:12:48.948Z,68.40
2018-07-07T23:17:42.220Z,68.50
2018-07-07T23:22:49.163Z,69.20
2018-07-07T23:27:42.467Z,69.90
2018-07-07T23:32:37.664Z,70.60
2018-07-07T23:37:30.976Z,71.20
2018-07-07T23:42:24.241Z,71.90
2018-07-07T23:47:17.525Z,72.40
2018-07-07T23:52:11.347Z,73.00
2018-07-07T23:57:04.833Z,73.90
